This demonstration page uses our WeatherBlox Daily Observations layout. Learn more.

Hourly Observations for January 27, 2017

Temp ( °F °C ) Dew Point ( °F °C ) Humidity (%) Winds ( mph kmh ) Pressure ( in mb ) Visibility ( mi km ) Precip ( " mm )
12:54 am 00:54 Cloudy 26 -3.3 17 -8.3 69 69 NW 15 24 30.17 1022 10 16.0934 0 0
1:54 am 01:54 Cloudy 25 -3.9 17 -8.3 72 72 NNW 24 39 30.18 1022 10 16.0934 0 0
2:54 am 02:54 Partly Cloudy 22 -5.6 15 -9.4 75 75 NNW 20 31 30.2 1023 10 16.0934 0 0
3:54 am 03:54 Clear 21 -6.1 14 -10 74 74 NNW 12 19 30.2 1023 10 16.0934 0 0
4:54 am 04:54 Clear 19 -7.2 14 -10 81 81 NNW 7 11 30.2 1023 10 16.0934 0 0
5:54 am 05:54 Clear 19 -7.2 14 -10 81 81 Calm 30.2 1023 10 16.0934 0 0
6:54 am 06:54 Clear 19 -7.2 14 -10 81 81 Calm 30.2 1023 10 16.0934 0 0
7:54 am 07:54 Sunny 19 -7.2 14 -10 81 81 SW 3 6 30.19 1023 10 16.0934 0 0
8:54 am 08:54 Sunny 26 -3.3 16 -8.9 66 66 WNW 13 20 30.18 1022 10 16.0934 0 0
9:54 am 09:54 Sunny 31 -0.6 18 -7.8 59 59 W 12 19 30.17 1022 10 16.0934 0 0
10:54 am 10:54 Sunny 34 1.1 18 -7.8 52 52 WNW 16 26 30.18 1022 10 16.0934 0 0
11:54 am 11:54 Sunny 37 2.8 19 -7.2 48 48 WNW 18 30 30.15 1021 10 16.0934 0 0
12:54 pm 12:54 Sunny 38 3.3 21 -6.1 51 51 WNW 18 30 30.12 1020 10 16.0934 0 0
1:54 pm 13:54 Sunny 39 3.9 23 -5 53 53 NW 21 33 30.1 1019 10 16.0934 0 0
2:54 pm 14:54 Sunny 39 3.9 24 -4.4 55 55 WNW 22 35 30.09 1019 10 16.0934 0 0
3:54 pm 15:54 Partly Cloudy 39 3.9 25 -3.9 57 57 WNW 18 30 30.09 1019 10 16.0934 0 0
4:54 pm 16:54 Sunny 38 3.3 26 -3.3 62 62 NW 18 30 30.09 1019 10 16.0934 0 0
5:54 pm 17:54 Cloudy 36 2.2 26 -3.3 67 67 NW 14 22 30.1 1019 10 16.0934 0 0
6:47 pm 18:47 Cloudy 36 2.2 26 -3.3 67 67 NW 20 31 30.12 1020 10 16.0934 0 0
6:54 pm 18:54 Cloudy 36 2.2 26 -3.3 67 67 NW 20 31 30.1 1019 10 16.0934 0 0
7:54 pm 19:54 Cloudy 35 1.7 26 -3.3 70 70 NW 20 31 30.11 1020 10 16.0934 0 0
8:24 pm 20:24 Partly Cloudy 34 1 25 -4 70 70 NNW 13 20 30.12 1020 10 16.0934 0 0
8:54 pm 20:54 Clear 33 0.6 25 -3.9 72 72 NNW 17 28 30.11 1020 10 16.0934 0 0
9:54 pm 21:54 Clear 32 0 25 -3.9 75 75 NW 13 20 30.11 1020 10 16.0934 0 0
10:54 pm 22:54 Clear 32 0 25 -3.9 75 75 NW 13 20 30.12 1020 10 16.0934 0 0
11:54 pm 23:54 Clear 31 -0.6 25 -3.9 79 79 WNW 9 15 30.12 1020 10 16.0934 0 0

Powered by AerisWeather